Aérodrome :
LOGIN :

S'inscrire | Disclaimer

   EN    FR    IT 

 










Légende :    VFR   VFR Marginal   IFR   IFR Intensif   IFR Très Intensif
Visi : 
Plafond : 
>= 8 km
>= 3000ft
5 à 8 km
1000 à 3000 ft
1500m à 5 km
500 à 1000 ft
800 à 1500m
200 à 500 ft
< 800m
< 200 ft
Symboles :   Orages  Brouillard  Fortes neiges  Fortes précipitations  Vent > 20 kt
SIGMETs :   Divers  Orages  Givrage  Turbulence  Onde Orograph.  Cendres Volcan.







- Altitude de l'aérodrome : 12 ft
- Code IATA : BCN


LEBL - Barcelone

DERNIER METAR :
  • 270730Z VRB01KT CAVOK 27/15 Q1021 NOSIG

METARs EXPIRÉS :
  • 270700Z 34004KT 280V030 CAVOK 25/14 Q1020 NOSIG
  • 270630Z 34005KT 280V020 CAVOK 24/14 Q1020 NOSIG
  • 270600Z 33006KT 260V050 CAVOK 23/14 Q1020 NOSIG
  • 270530Z 33006KT 310V010 CAVOK 22/14 Q1020 NOSIG
  • 270500Z 33006KT CAVOK 21/14 Q1020 NOSIG

TAF TAF LEBL
Valide du 27 à 06h jusqu'au 28 à 06h UTC


270500Z 2706/2806 36004KT CAVOK TX30/2712Z TN21/2706Z
BECMG 2708/2710 11007KT
BECMG 2717/2719 VRB03KT
Pas de NOTAMs connus pour ce terrain.



MET'MAP, la Météo Aéronautique d'un coup d'oeil ! - Copyright ORBIFLY Décembre 2007 - Disclaimer

ORBIFLY MET'MAP TEAM :

Programmation & Développement : Alexandra Zaïnal
Conception & Développement : Baudouin d'Aumeries
Co-Programmation & Développement : Marc-Olivier Méhu
Soutien technique & logistique : Manuel Goepfert

Contact : metmap@orbifly.com




SOURCES & CREDITS :

   NOAA